Time;durP1;ratioP1;P1;durP2;ratioP2;P2;SDS_P1;SDS_P2;PMS_P1;PMS_P2;Temp;Humidity;BMP_temperature;BMP_pressure;BME280_temperature;BME280_humidity;BME280_pressure;Samples;Min_cycle;Max_cycle;Signal;HPM_P1;HPM_P2
2022/04/08 00:01:26;;;;;;;13.07;3.00;;;;;;;;;;5047720;28;20048;-60
2022/04/08 00:03:53;;;;;;;20.17;3.42;;;;;;;;;;5046982;28;20091;-60
2022/04/08 00:06:20;;;;;;;15.32;3.05;;;;;;;;;;5046079;28;20103;-61
2022/04/08 00:08:46;;;;;;;16.17;2.85;;;;;;;;;;5044406;28;20048;-61
2022/04/08 00:11:15;;;;;;;16.75;3.08;;;;;;;;;;5046942;28;20055;-60
2022/04/08 00:13:41;;;;;;;14.93;3.05;;;;;;;;;;5047174;28;20341;-61
2022/04/08 00:16:08;;;;;;;13.40;2.80;;;;;;;;;;5047925;28;20106;-61
2022/04/08 00:18:35;;;;;;;14.77;3.15;;;;;;;;;;5046002;28;20076;-60
2022/04/08 00:21:01;;;;;;;;;;;;;;;;;;5049052;28;20132;-60
2022/04/08 00:23:27;;;;;;;9.93;2.47;;;;;;;;;;5048604;28;19971;-61
2022/04/08 00:25:53;;;;;;;;;;;;;;;;;;5049205;28;20480;-60
2022/04/08 00:28:21;;;;;;;6.40;1.83;;;;;;;;;;5047810;28;19981;-61
2022/04/08 00:30:47;;;;;;;9.93;2.22;;;;;;;;;;5047459;28;20052;-60
2022/04/08 00:33:13;;;;;;;12.27;2.10;;;;;;;;;;5047760;28;20060;-60
2022/04/08 00:35:39;;;;;;;6.45;1.98;;;;;;;;;;5048717;28;20040;-61
2022/04/08 00:38:06;;;;;;;13.80;2.30;;;;;;;;;;5048403;28;20064;-61
2022/04/08 00:40:35;;;;;;;13.82;2.72;;;;;;;;;;5047904;28;20049;-60
2022/04/08 00:43:14;;;;;;;11.98;2.60;;;;;;;;;;5046576;28;20055;-61
2022/04/08 00:45:41;;;;;;;9.85;2.40;;;;;;;;;;5048346;28;20048;-61
2022/04/08 00:48:07;;;;;;;14.85;3.00;;;;;;;;;;5048762;28;20068;-61
2022/04/08 00:50:37;;;;;;;13.30;2.75;;;;;;;;;;5046688;28;20128;-61
2022/04/08 00:53:05;;;;;;;15.32;3.05;;;;;;;;;;5047738;28;20052;-61
2022/04/08 00:55:31;;;;;;;18.63;3.65;;;;;;;;;;5046841;28;20049;-60
2022/04/08 00:57:57;;;;;;;15.52;3.38;;;;;;;;;;5048143;28;20415;-62
2022/04/08 01:00:24;;;;;;;18.00;3.72;;;;;;;;;;5046969;28;20103;-61
2022/04/08 01:02:50;;;;;;;;;;;;;;;;;;5047389;28;20052;-61
2022/04/08 01:05:16;;;;;;;15.75;3.40;;;;;;;;;;5047747;28;19921;-62
2022/04/08 01:07:42;;;;;;;15.05;3.45;;;;;;;;;;5047449;28;20070;-61
2022/04/08 01:10:08;;;;;;;23.20;3.92;;;;;;;;;;5047957;28;20114;-61
2022/04/08 01:12:34;;;;;;;17.80;3.45;;;;;;;;;;5047473;28;20045;-61
2022/04/08 01:15:01;;;;;;;22.63;3.92;;;;;;;;;;5047513;28;20049;-61
2022/04/08 01:17:27;;;;;;;21.70;3.72;;;;;;;;;;5047272;28;20147;-61
2022/04/08 01:19:53;;;;;;;17.15;3.20;;;;;;;;;;5047592;28;20511;-62
2022/04/08 01:22:23;;;;;;;;;;;;;;;;;;5048496;28;20052;-62
2022/04/08 01:24:50;;;;;;;23.83;3.78;;;;;;;;;;5047477;28;20424;-61
2022/04/08 01:27:19;;;;;;;26.02;4.40;;;;;;;;;;5046923;28;20438;-61
2022/04/08 01:29:45;;;;;;;23.42;4.18;;;;;;;;;;5046047;28;20116;-61
2022/04/08 01:32:11;;;;;;;16.88;3.45;;;;;;;;;;5047344;28;20496;-61
2022/04/08 01:34:37;;;;;;;17.45;3.55;;;;;;;;;;5046528;28;20045;-62
2022/04/08 01:37:03;;;;;;;23.10;3.75;;;;;;;;;;5048053;28;20071;-61
2022/04/08 01:39:29;;;;;;;25.30;4.25;;;;;;;;;;5046921;28;20071;-61
2022/04/08 01:41:55;;;;;;;17.63;3.50;;;;;;;;;;5047460;28;20071;-61
2022/04/08 01:44:21;;;;;;;21.52;3.80;;;;;;;;;;5046228;28;20055;-60
2022/04/08 01:46:47;;;;;;;17.67;3.08;;;;;;;;;;5047218;28;20124;-61
2022/04/08 01:49:13;;;;;;;21.02;3.75;;;;;;;;;;5048008;28;20045;-60
2022/04/08 01:51:39;;;;;;;17.33;3.45;;;;;;;;;;5046254;28;20049;-61
2022/04/08 01:54:05;;;;;;;16.15;3.95;;;;;;;;;;5045836;28;20056;-60
2022/04/08 01:56:32;;;;;;;15.35;2.90;;;;;;;;;;5045229;28;20060;-61
2022/04/08 01:58:58;;;;;;;19.33;3.90;;;;;;;;;;5047383;28;20139;-61
2022/04/08 02:01:24;;;;;;;17.95;3.15;;;;;;;;;;5047105;28;20450;-60
2022/04/08 02:03:50;;;;;;;19.98;4.07;;;;;;;;;;5046478;28;20048;-60
2022/04/08 02:06:16;;;;;;;16.35;3.47;;;;;;;;;;5047664;28;20161;-60
2022/04/08 02:08:43;;;;;;;21.75;3.75;;;;;;;;;;5044851;28;20380;-61
2022/04/08 02:11:09;;;;;;;17.92;3.55;;;;;;;;;;5045128;28;20060;-60
2022/04/08 02:13:35;;;;;;;27.42;4.85;;;;;;;;;;5046738;28;20103;-61
2022/04/08 02:16:01;;;;;;;18.00;4.00;;;;;;;;;;5045417;28;20144;-61
2022/04/08 02:18:27;;;;;;;24.42;4.45;;;;;;;;;;5047313;28;20068;-61
2022/04/08 02:20:53;;;;;;;26.17;3.90;;;;;;;;;;5046639;28;20041;-60
2022/04/08 02:23:19;;;;;;;26.63;4.85;;;;;;;;;;5047246;28;20440;-60
2022/04/08 02:25:47;;;;;;;17.75;3.83;;;;;;;;;;5045094;28;20063;-61
2022/04/08 02:28:14;;;;;;;19.98;4.13;;;;;;;;;;5045932;28;20053;-61
2022/04/08 02:30:40;;;;;;;16.85;3.35;;;;;;;;;;5048375;28;20133;-62
2022/04/08 02:33:06;;;;;;;22.08;3.88;;;;;;;;;;5051125;28;20049;-61
2022/04/08 02:35:32;;;;;;;16.27;3.35;;;;;;;;;;5050272;28;20067;-61
2022/04/08 02:37:58;;;;;;;19.55;3.22;;;;;;;;;;5049651;28;20064;-60
2022/04/08 02:40:25;;;;;;;18.25;3.25;;;;;;;;;;5049471;28;20414;-60
2022/04/08 02:42:51;;;;;;;18.38;3.90;;;;;;;;;;5048958;28;20089;-60
2022/04/08 02:45:17;;;;;;;18.38;3.70;;;;;;;;;;5050687;28;20136;-60
2022/04/08 02:47:44;;;;;;;12.15;3.13;;;;;;;;;;5049953;28;20494;-61
2022/04/08 02:50:10;;;;;;;29.08;4.55;;;;;;;;;;5049173;28;20414;-60
2022/04/08 02:52:36;;;;;;;;;;;;;;;;;;5049543;28;20339;-61
2022/04/08 02:55:04;;;;;;;23.05;3.53;;;;;;;;;;5049988;28;20050;-61
2022/04/08 02:57:30;;;;;;;18.38;3.17;;;;;;;;;;5049251;28;20434;-60
2022/04/08 02:59:56;;;;;;;18.40;3.08;;;;;;;;;;5047840;28;20524;-61
2022/04/08 03:02:22;;;;;;;18.52;3.80;;;;;;;;;;5048074;28;20393;-60
2022/04/08 03:04:49;;;;;;;17.95;3.13;;;;;;;;;;5049792;28;20123;-60
2022/04/08 03:07:15;;;;;;;14.48;3.35;;;;;;;;;;5048305;28;20473;-60
2022/04/08 03:09:41;;;;;;;22.60;4.18;;;;;;;;;;5049562;28;20116;-60
2022/04/08 03:12:08;;;;;;;18.50;3.35;;;;;;;;;;5050130;28;20061;-60
2022/04/08 03:14:35;;;;;;;20.33;4.20;;;;;;;;;;5049637;28;20349;-60
2022/04/08 03:17:01;;;;;;;15.60;2.92;;;;;;;;;;5032282;28;20056;-60
2022/04/08 03:19:28;;;;;;;16.23;2.97;;;;;;;;;;5050511;28;20045;-59
2022/04/08 03:21:54;;;;;;;18.50;3.42;;;;;;;;;;5049089;28;20052;-60
2022/04/08 03:24:20;;;;;;;15.70;3.13;;;;;;;;;;5048499;28;20144;-61
2022/04/08 03:26:48;;;;;;;20.00;3.92;;;;;;;;;;5049673;28;20155;-60
2022/04/08 03:29:15;;;;;;;16.33;3.70;;;;;;;;;;5048490;28;20041;-60
2022/04/08 03:31:41;;;;;;;15.32;3.20;;;;;;;;;;5048872;28;20076;-60
2022/04/08 03:34:07;;;;;;;15.52;2.97;;;;;;;;;;5049372;28;20131;-60
2022/04/08 03:36:33;;;;;;;16.73;3.40;;;;;;;;;;5048362;28;20128;-60
2022/04/08 03:38:59;;;;;;;17.02;3.60;;;;;;;;;;5047082;28;20090;-60
2022/04/08 03:41:25;;;;;;;21.65;3.70;;;;;;;;;;5048411;28;20394;-60
2022/04/08 03:43:51;;;;;;;19.65;3.70;;;;;;;;;;5048129;28;20045;-60
2022/04/08 03:46:18;;;;;;;15.05;3.53;;;;;;;;;;5049296;28;20365;-60
2022/04/08 03:48:44;;;;;;;18.00;3.92;;;;;;;;;;5049167;28;20051;-61
2022/04/08 03:51:10;;;;;;;15.52;3.47;;;;;;;;;;5048967;28;20056;-60
2022/04/08 03:53:36;;;;;;;13.18;3.15;;;;;;;;;;5046957;28;20094;-60
2022/04/08 03:56:02;;;;;;;17.55;3.53;;;;;;;;;;5048412;28;20587;-60
2022/04/08 03:58:29;;;;;;;11.32;2.85;;;;;;;;;;5048649;28;20122;-61
2022/04/08 04:00:56;;;;;;;14.52;2.90;;;;;;;;;;5048009;28;20055;-61
2022/04/08 04:03:22;;;;;;;14.75;2.80;;;;;;;;;;5049307;28;20048;-61
2022/04/08 04:05:49;;;;;;;10.30;2.60;;;;;;;;;;5048464;28;20059;-61
2022/04/08 04:08:18;;;;;;;11.25;2.75;;;;;;;;;;5049047;28;20396;-61
2022/04/08 04:10:48;;;;;;;9.32;2.80;;;;;;;;;;5048529;28;20128;-61
2022/04/08 04:13:14;;;;;;;7.97;2.60;;;;;;;;;;5047864;28;20104;-62
2022/04/08 04:15:40;;;;;;;9.10;2.90;;;;;;;;;;5047409;28;20033;-61
2022/04/08 04:18:06;;;;;;;11.63;3.33;;;;;;;;;;5047732;28;20403;-61
2022/04/08 04:20:34;;;;;;;15.30;3.40;;;;;;;;;;5048807;28;20143;-61
2022/04/08 04:23:00;;;;;;;14.35;3.80;;;;;;;;;;5048547;28;20097;-61
2022/04/08 04:25:28;;;;;;;14.32;3.03;;;;;;;;;;5048425;28;20120;-61
2022/04/08 04:27:55;;;;;;;14.07;3.83;;;;;;;;;;5047527;28;20122;-61
2022/04/08 04:30:21;;;;;;;;;;;;;;;;;;5048653;28;20128;-61
2022/04/08 04:32:47;;;;;;;14.48;3.30;;;;;;;;;;5048123;28;20283;-62
2022/04/08 04:35:13;;;;;;;12.55;3.60;;;;;;;;;;5046813;28;20139;-61
2022/04/08 04:37:41;;;;;;;11.82;3.17;;;;;;;;;;5048941;28;20056;-61
2022/04/08 04:40:08;;;;;;;8.68;2.78;;;;;;;;;;5046969;28;20044;-61
2022/04/08 04:42:34;;;;;;;13.82;2.85;;;;;;;;;;5048881;28;20040;-61
2022/04/08 04:45:01;;;;;;;8.10;3.00;;;;;;;;;;5047709;28;20056;-61
2022/04/08 04:47:27;;;;;;;;;;;;;;;;;;5047626;28;20461;-61
2022/04/08 04:49:53;;;;;;;11.45;3.25;;;;;;;;;;5047177;28;19921;-61
2022/04/08 04:52:19;;;;;;;10.38;2.83;;;;;;;;;;5047496;28;20084;-61
2022/04/08 04:54:45;;;;;;;14.77;3.40;;;;;;;;;;5047908;28;20044;-61
2022/04/08 04:57:11;;;;;;;14.02;3.42;;;;;;;;;;5047941;28;20131;-62
2022/04/08 04:59:37;;;;;;;16.73;4.72;;;;;;;;;;5048025;28;20135;-62
2022/04/08 05:02:03;;;;;;;9.77;3.00;;;;;;;;;;5047226;28;20049;-62
2022/04/08 05:04:30;;;;;;;13.63;3.08;;;;;;;;;;5048472;28;20041;-63
2022/04/08 05:06:57;;;;;;;10.25;2.85;;;;;;;;;;5047786;28;20063;-63
2022/04/08 05:09:23;;;;;;;9.55;2.92;;;;;;;;;;5048149;28;20063;-62
2022/04/08 05:11:49;;;;;;;9.93;2.95;;;;;;;;;;5046869;28;20061;-61
2022/04/08 05:14:16;;;;;;;10.20;2.95;;;;;;;;;;5047607;28;20099;-62
2022/04/08 05:16:42;;;;;;;9.73;2.92;;;;;;;;;;5048545;28;20107;-62
2022/04/08 05:19:08;;;;;;;12.20;3.47;;;;;;;;;;5047732;28;20048;-63
2022/04/08 05:21:34;;;;;;;12.85;2.95;;;;;;;;;;5047678;28;20060;-62
2022/04/08 05:24:00;;;;;;;7.43;2.63;;;;;;;;;;5047090;28;20052;-61
2022/04/08 05:26:26;;;;;;;13.35;3.47;;;;;;;;;;5046269;28;20160;-61
2022/04/08 05:28:52;;;;;;;10.98;3.03;;;;;;;;;;5046586;28;20430;-61
2022/04/08 05:31:19;;;;;;;16.90;3.50;;;;;;;;;;5045320;28;20123;-61
2022/04/08 05:33:51;;;;;;;13.88;3.25;;;;;;;;;;5044947;28;20124;-61
2022/04/08 05:36:17;;;;;;;11.23;3.08;;;;;;;;;;5046607;28;20117;-60
2022/04/08 05:38:43;;;;;;;9.23;2.70;;;;;;;;;;5045970;28;20037;-62
2022/04/08 05:41:09;;;;;;;;;;;;;;;;;;5046369;28;20069;-61
2022/04/08 05:43:35;;;;;;;11.85;2.88;;;;;;;;;;5046086;28;19928;-60
2022/04/08 05:46:01;;;;;;;13.07;3.10;;;;;;;;;;5044799;28;20381;-61
2022/04/08 05:48:28;;;;;;;9.80;3.08;;;;;;;;;;5047137;28;20064;-61
2022/04/08 05:50:54;;;;;;;13.23;3.40;;;;;;;;;;5045507;28;20110;-64
2022/04/08 05:53:22;;;;;;;10.35;3.20;;;;;;;;;;5045417;28;20049;-62
2022/04/08 05:55:48;;;;;;;10.50;2.75;;;;;;;;;;5046169;28;20163;-62
2022/04/08 05:58:14;;;;;;;12.20;3.38;;;;;;;;;;5044181;28;20052;-61
2022/04/08 06:00:40;;;;;;;14.25;3.55;;;;;;;;;;5046314;28;20048;-62
2022/04/08 06:03:06;;;;;;;9.95;3.25;;;;;;;;;;5027964;28;20131;-61
2022/04/08 06:05:32;;;;;;;14.57;3.45;;;;;;;;;;5049948;28;20052;-61
2022/04/08 06:07:58;;;;;;;13.48;3.42;;;;;;;;;;5050359;28;20056;-62
2022/04/08 06:10:26;;;;;;;15.48;3.55;;;;;;;;;;5050295;28;20041;-63
2022/04/08 06:12:53;;;;;;;14.27;3.38;;;;;;;;;;5048593;28;20120;-63
2022/04/08 06:15:20;;;;;;;11.25;3.20;;;;;;;;;;5043211;28;20067;-62
2022/04/08 06:17:46;;;;;;;12.55;3.50;;;;;;;;;;5037833;28;20397;-62
2022/04/08 06:20:15;;;;;;;11.75;3.10;;;;;;;;;;5046766;28;20462;-62
2022/04/08 06:22:41;;;;;;;8.80;3.10;;;;;;;;;;5049906;28;20327;-62
2022/04/08 06:25:11;;;;;;;11.00;3.20;;;;;;;;;;5047083;28;20125;-62
2022/04/08 06:27:56;;;;;;;12.43;3.80;;;;;;;;;;5051081;28;20349;-63
2022/04/08 06:30:22;;;;;;;10.50;3.13;;;;;;;;;;5041490;28;20092;-63
2022/04/08 06:32:51;;;;;;;10.05;3.60;;;;;;;;;;5050269;28;20037;-62
2022/04/08 06:35:18;;;;;;;10.55;3.40;;;;;;;;;;5042684;28;20141;-62
2022/04/08 06:37:44;;;;;;;13.38;4.18;;;;;;;;;;5050588;28;20049;-61
2022/04/08 06:40:13;;;;;;;14.98;4.18;;;;;;;;;;5048662;28;20337;-62
2022/04/08 06:42:39;;;;;;;15.10;3.88;;;;;;;;;;5036175;28;20045;-62
2022/04/08 06:45:06;;;;;;;14.98;4.20;;;;;;;;;;5035283;28;20121;-62
2022/04/08 06:47:32;;;;;;;16.67;4.25;;;;;;;;;;5048227;28;20063;-61
2022/04/08 06:49:58;;;;;;;13.70;4.13;;;;;;;;;;5048645;28;20045;-62
2022/04/08 06:52:25;;;;;;;14.27;4.45;;;;;;;;;;5048677;28;20061;-61
2022/04/08 06:54:51;;;;;;;16.80;4.10;;;;;;;;;;5050481;28;20053;-61
2022/04/08 06:57:17;;;;;;;15.65;4.85;;;;;;;;;;5047381;28;20056;-61
2022/04/08 06:59:43;;;;;;;12.63;4.25;;;;;;;;;;5041628;28;20037;-62
2022/04/08 07:02:11;;;;;;;15.73;4.15;;;;;;;;;;5045773;28;20048;-62
2022/04/08 07:04:38;;;;;;;18.50;4.15;;;;;;;;;;5047023;28;20515;-61
2022/04/08 07:07:07;;;;;;;14.05;4.18;;;;;;;;;;5046226;28;20037;-62
2022/04/08 07:09:33;;;;;;;15.88;4.13;;;;;;;;;;5045440;28;20045;-62
2022/04/08 07:12:00;;;;;;;15.68;4.53;;;;;;;;;;5011891;28;20081;-61
2022/04/08 07:14:27;;;;;;;15.20;4.93;;;;;;;;;;5056054;28;20068;-62
2022/04/08 07:16:53;;;;;;;14.82;4.07;;;;;;;;;;5049135;28;20179;-61
2022/04/08 07:19:19;;;;;;;14.13;4.30;;;;;;;;;;5047436;28;20063;-61
2022/04/08 07:21:45;;;;;;;15.32;4.30;;;;;;;;;;5049293;28;20162;-61
2022/04/08 07:24:11;;;;;;;15.77;4.07;;;;;;;;;;5046725;28;20135;-61
2022/04/08 07:26:37;;;;;;;14.98;4.60;;;;;;;;;;5049892;28;20045;-61
2022/04/08 07:29:04;;;;;;;16.42;4.60;;;;;;;;;;5048204;28;20186;-62
2022/04/08 07:31:30;;;;;;;;;;;;;;;;;;5048651;28;20096;-62
2022/04/08 07:33:59;;;;;;;13.38;3.90;;;;;;;;;;5049086;28;19921;-63
2022/04/08 07:36:26;;;;;;;15.52;4.18;;;;;;;;;;5046964;28;20048;-62
2022/04/08 07:38:52;;;;;;;17.10;4.50;;;;;;;;;;5047405;28;20049;-61
2022/04/08 07:41:19;;;;;;;12.13;4.03;;;;;;;;;;5047298;28;20128;-62
2022/04/08 07:43:45;;;;;;;13.75;4.05;;;;;;;;;;5048979;28;20044;-62
2022/04/08 07:46:11;;;;;;;16.77;4.07;;;;;;;;;;5048582;28;20048;-62
2022/04/08 07:48:37;;;;;;;13.63;3.42;;;;;;;;;;5049087;28;20100;-62
2022/04/08 07:51:06;;;;;;;16.30;3.40;;;;;;;;;;5049704;28;20230;-62
2022/04/08 07:53:32;;;;;;;16.60;3.97;;;;;;;;;;5046799;28;20060;-62
2022/04/08 07:55:58;;;;;;;14.75;3.47;;;;;;;;;;5048323;28;20052;-62
2022/04/08 07:58:25;;;;;;;11.77;3.15;;;;;;;;;;5046071;28;20040;-61
2022/04/08 08:00:53;;;;;;;14.32;3.80;;;;;;;;;;5047210;28;20124;-61
2022/04/08 08:03:19;;;;;;;14.95;3.72;;;;;;;;;;5045111;28;20418;-62
2022/04/08 08:05:46;;;;;;;13.88;4.00;;;;;;;;;;5047007;28;20132;-61
2022/04/08 08:08:12;;;;;;;16.27;3.83;;;;;;;;;;5048779;28;20122;-62
2022/04/08 08:10:41;;;;;;;15.07;3.60;;;;;;;;;;5049290;28;20041;-61
2022/04/08 08:13:07;;;;;;;14.93;3.50;;;;;;;;;;5047698;28;20052;-60
2022/04/08 08:15:36;;;;;;;18.08;3.90;;;;;;;;;;5048609;28;20037;-61
2022/04/08 08:18:02;;;;;;;15.80;4.00;;;;;;;;;;5048231;28;20119;-60
2022/04/08 08:20:28;;;;;;;15.05;3.58;;;;;;;;;;5048439;28;20045;-62
2022/04/08 08:22:55;;;;;;;16.23;3.80;;;;;;;;;;5048435;28;20068;-60
2022/04/08 08:25:21;;;;;;;13.70;4.22;;;;;;;;;;5047786;28;20450;-60
2022/04/08 08:27:48;;;;;;;;;;;;;;;;;;5047674;28;20121;-62
2022/04/08 08:30:15;;;;;;;13.13;4.22;;;;;;;;;;5048255;28;20000;-60
2022/04/08 08:32:43;;;;;;;13.23;3.55;;;;;;;;;;5048610;28;20045;-61
2022/04/08 08:35:10;;;;;;;15.70;4.05;;;;;;;;;;5048553;28;20128;-61
2022/04/08 08:37:37;;;;;;;14.80;3.35;;;;;;;;;;5048062;28;20084;-61
2022/04/08 08:40:03;;;;;;;;;;;;;;;;;;5048678;28;20052;-61
2022/04/08 08:42:29;;;;;;;13.48;3.10;;;;;;;;;;5048175;28;20019;-61
2022/04/08 08:44:56;;;;;;;9.10;2.75;;;;;;;;;;5048267;28;20462;-60
2022/04/08 08:47:22;;;;;;;16.58;3.17;;;;;;;;;;5047742;28;20109;-60
2022/04/08 08:49:51;;;;;;;16.52;3.03;;;;;;;;;;5029978;28;20340;-61
2022/04/08 08:52:20;;;;;;;13.80;3.47;;;;;;;;;;5047086;28;20075;-62
2022/04/08 08:54:47;;;;;;;14.50;3.38;;;;;;;;;;5048654;28;20082;-61
2022/04/08 08:57:12;;;;;;;;;;;;;;;;;;5049126;28;20068;-61
2022/04/08 08:59:44;;;;;;;11.48;2.85;;;;;;;;;;5046769;28;19920;-62
2022/04/08 09:02:11;;;;;;;11.77;3.15;;;;;;;;;;5048097;28;20057;-60
2022/04/08 09:04:43;;;;;;;8.63;2.55;;;;;;;;;;5047812;28;20069;-60
2022/04/08 09:07:38;;;;;;;14.50;3.10;;;;;;;;;;5047562;28;20045;-61
2022/04/08 09:10:05;;;;;;;10.50;2.72;;;;;;;;;;5046890;28;20065;-61
2022/04/08 09:12:31;;;;;;;9.95;2.75;;;;;;;;;;5046835;28;20147;-62
2022/04/08 09:14:58;;;;;;;15.45;3.33;;;;;;;;;;5047236;28;20153;-62
2022/04/08 09:17:25;;;;;;;13.85;3.20;;;;;;;;;;5046782;28;20065;-61
2022/04/08 09:19:52;;;;;;;14.98;3.88;;;;;;;;;;5048072;28;20089;-61
2022/04/08 09:22:21;;;;;;;13.55;3.42;;;;;;;;;;5047987;28;20053;-60
2022/04/08 09:24:47;;;;;;;16.90;4.28;;;;;;;;;;5046465;28;20485;-60
2022/04/08 09:27:13;;;;;;;15.48;3.88;;;;;;;;;;5045675;28;20488;-60
2022/04/08 09:29:39;;;;;;;;;;;;;;;;;;5044491;28;20060;-62
2022/04/08 09:32:09;;;;;;;17.55;3.80;;;;;;;;;;5043041;28;20343;-61
2022/04/08 09:34:36;;;;;;;11.48;3.35;;;;;;;;;;5045605;28;20067;-61
2022/04/08 09:37:08;;;;;;;9.20;2.63;;;;;;;;;;5037891;28;20079;-61
2022/04/08 09:39:34;;;;;;;10.73;2.50;;;;;;;;;;5038928;28;20072;-63
2022/04/08 09:42:03;;;;;;;7.90;2.08;;;;;;;;;;5046421;28;20116;-61
2022/04/08 09:44:29;;;;;;;9.85;2.65;;;;;;;;;;5049403;28;20045;-61
2022/04/08 09:46:55;;;;;;;8.55;2.47;;;;;;;;;;5050232;28;20072;-62
2022/04/08 09:49:21;;;;;;;8.55;2.67;;;;;;;;;;5048558;28;20094;-62
2022/04/08 09:51:52;;;;;;;16.63;3.10;;;;;;;;;;5048297;28;20125;-62
2022/04/08 09:54:23;;;;;;;10.13;2.67;;;;;;;;;;5050518;28;20156;-60
2022/04/08 09:56:50;;;;;;;11.90;3.22;;;;;;;;;;5050805;28;20120;-61
2022/04/08 09:59:16;;;;;;;;;;;;;;;;;;5048683;28;20319;-60
2022/04/08 10:01:43;;;;;;;9.90;2.72;;;;;;;;;;5047159;28;19927;-61
2022/04/08 10:04:10;;;;;;;12.82;3.20;;;;;;;;;;5049214;28;20044;-61
2022/04/08 10:06:36;;;;;;;;;;;;;;;;;;5041147;28;20116;-61
2022/04/08 10:09:13;;;;;;;11.85;2.83;;;;;;;;;;5039858;28;19990;-61
2022/04/08 10:11:58;;;;;;;12.07;2.55;;;;;;;;;;5049304;28;20393;-60
2022/04/08 10:14:43;;;;;;;14.75;2.88;;;;;;;;;;5034316;28;20053;-60
2022/04/08 10:17:10;;;;;;;11.70;2.58;;;;;;;;;;5048009;28;20044;-60
2022/04/08 10:19:36;;;;;;;9.57;2.63;;;;;;;;;;5048823;28;20148;-61
2022/04/08 10:22:02;;;;;;;9.27;2.47;;;;;;;;;;5045885;28;20080;-60
2022/04/08 10:24:30;;;;;;;10.05;2.42;;;;;;;;;;5046563;28;20418;-60
2022/04/08 10:26:57;;;;;;;9.48;2.78;;;;;;;;;;5046237;28;20071;-61
2022/04/08 10:29:23;;;;;;;13.85;4.00;;;;;;;;;;5046348;28;20079;-61
2022/04/08 10:31:56;;;;;;;8.63;2.50;;;;;;;;;;5028839;28;20041;-61
2022/04/08 10:34:23;;;;;;;15.65;3.00;;;;;;;;;;5046426;28;20041;-61
2022/04/08 10:36:49;;;;;;;8.80;2.53;;;;;;;;;;5047453;28;20049;-61
2022/04/08 10:39:16;;;;;;;10.77;2.80;;;;;;;;;;5047037;28;20041;-61
2022/04/08 10:41:46;;;;;;;10.90;2.60;;;;;;;;;;5048633;28;20045;-60
2022/04/08 10:44:12;;;;;;;11.18;2.47;;;;;;;;;;5049198;28;20053;-59
2022/04/08 10:46:49;;;;;;;9.35;2.33;;;;;;;;;;5039401;28;20142;-60
2022/04/08 10:49:16;;;;;;;;;;;;;;;;;;5048819;28;20223;-60
2022/04/08 10:51:49;;;;;;;8.57;2.60;;;;;;;;;;5048257;28;20296;-61
2022/04/08 10:54:16;;;;;;;15.25;2.58;;;;;;;;;;5035961;28;20065;-60
2022/04/08 10:56:43;;;;;;;13.13;2.63;;;;;;;;;;5048023;28;20089;-61
2022/04/08 10:59:10;;;;;;;13.23;2.63;;;;;;;;;;5046917;28;20053;-61
2022/04/08 11:01:46;;;;;;;11.07;2.92;;;;;;;;;;5046311;28;20095;-62
2022/04/08 11:04:12;;;;;;;14.68;3.33;;;;;;;;;;5047110;28;20052;-62
2022/04/08 11:06:38;;;;;;;16.27;3.28;;;;;;;;;;5043898;28;20427;-61
2022/04/08 11:09:05;;;;;;;12.57;2.85;;;;;;;;;;5049801;28;20116;-61
2022/04/08 11:11:33;;;;;;;16.77;3.30;;;;;;;;;;5049422;28;20061;-61
2022/04/08 11:14:00;;;;;;;14.23;3.08;;;;;;;;;;5040414;28;20048;-61
2022/04/08 11:16:31;;;;;;;11.25;2.63;;;;;;;;;;5047654;28;20470;-61
2022/04/08 11:18:57;;;;;;;13.32;3.30;;;;;;;;;;5048166;28;20819;-61
2022/04/08 11:21:24;;;;;;;14.43;2.63;;;;;;;;;;5047389;28;20377;-60
2022/04/08 11:24:17;;;;;;;16.90;2.72;;;;;;;;;;5047971;28;20128;-61
2022/04/08 11:27:02;;;;;;;17.05;3.10;;;;;;;;;;5045906;28;20053;-60
2022/04/08 11:29:28;;;;;;;11.85;2.60;;;;;;;;;;5041284;28;20045;-60
2022/04/08 11:32:08;;;;;;;10.75;2.85;;;;;;;;;;5048644;28;20646;-61
2022/04/08 11:34:34;;;;;;;;;;;;;;;;;;5048569;28;20049;-60
2022/04/08 11:37:00;;;;;;;16.85;3.17;;;;;;;;;;5048606;28;19924;-61
2022/04/08 11:39:27;;;;;;;10.95;2.80;;;;;;;;;;5049656;28;20505;-61
2022/04/08 11:41:54;;;;;;;13.85;2.80;;;;;;;;;;5048037;28;20346;-62
2022/04/08 11:44:21;;;;;;;12.20;2.25;;;;;;;;;;5048705;28;20059;-60
2022/04/08 11:46:47;;;;;;;12.45;2.70;;;;;;;;;;5048367;28;20346;-61
2022/04/08 11:49:15;;;;;;;11.00;2.42;;;;;;;;;;5049019;28;20447;-61
2022/04/08 11:51:42;;;;;;;11.48;2.75;;;;;;;;;;5046311;28;20358;-61
2022/04/08 11:54:08;;;;;;;13.35;3.10;;;;;;;;;;5048534;28;20469;-61
2022/04/08 11:56:35;;;;;;;11.13;2.80;;;;;;;;;;5048916;28;20041;-61
2022/04/08 11:59:05;;;;;;;10.18;2.50;;;;;;;;;;5046911;28;20048;-60
2022/04/08 12:01:32;;;;;;;10.75;2.38;;;;;;;;;;5047396;28;20059;-61
2022/04/08 12:04:01;;;;;;;11.25;2.50;;;;;;;;;;5046567;28;20124;-61
2022/04/08 12:06:36;;;;;;;15.90;2.67;;;;;;;;;;5044465;28;20185;-61
2022/04/08 12:09:03;;;;;;;8.85;2.38;;;;;;;;;;5046074;28;20068;-60
2022/04/08 12:11:31;;;;;;;11.48;2.53;;;;;;;;;;5043492;28;20091;-60
2022/04/08 12:13:57;;;;;;;8.73;2.38;;;;;;;;;;5048429;28;20060;-60
2022/04/08 12:16:23;;;;;;;12.15;2.58;;;;;;;;;;5030371;28;20041;-60
2022/04/08 12:18:52;;;;;;;9.43;2.28;;;;;;;;;;5045259;28;20049;-61
2022/04/08 12:21:23;;;;;;;10.45;2.40;;;;;;;;;;5047688;28;20389;-60
2022/04/08 12:23:52;;;;;;;13.25;2.97;;;;;;;;;;5047829;28;20049;-61
2022/04/08 12:26:18;;;;;;;10.57;2.35;;;;;;;;;;5047509;28;20063;-61
2022/04/08 12:28:44;;;;;;;12.05;2.80;;;;;;;;;;5048502;28;20199;-62
2022/04/08 12:31:12;;;;;;;9.95;2.40;;;;;;;;;;5047582;28;20080;-61
2022/04/08 12:33:42;;;;;;;12.18;2.80;;;;;;;;;;5048534;28;20144;-61
2022/04/08 12:36:09;;;;;;;9.07;2.22;;;;;;;;;;5047543;28;20052;-61
2022/04/08 12:38:36;;;;;;;9.13;2.40;;;;;;;;;;5047801;28;20044;-60
2022/04/08 12:41:02;;;;;;;8.80;2.75;;;;;;;;;;5047311;28;20409;-61
2022/04/08 12:43:28;;;;;;;10.63;2.60;;;;;;;;;;5048875;28;20132;-62
2022/04/08 12:45:54;;;;;;;9.25;2.40;;;;;;;;;;5030218;28;20147;-61
2022/04/08 12:48:20;;;;;;;9.05;2.20;;;;;;;;;;5046740;28;20059;-61
2022/04/08 12:50:47;;;;;;;7.20;2.15;;;;;;;;;;5046118;28;20492;-62
2022/04/08 12:53:13;;;;;;;;;;;;;;;;;;5048471;28;20072;-60
2022/04/08 12:55:39;;;;;;;9.63;2.33;;;;;;;;;;5047594;28;19989;-61
2022/04/08 12:58:05;;;;;;;11.43;2.70;;;;;;;;;;5045675;28;20041;-61
2022/04/08 13:00:31;;;;;;;7.45;2.10;;;;;;;;;;5047607;28;20056;-61
2022/04/08 13:02:58;;;;;;;11.95;2.95;;;;;;;;;;5045002;28;20071;-61
2022/04/08 13:05:24;;;;;;;11.05;2.63;;;;;;;;;;5045775;28;20121;-60
2022/04/08 13:07:52;;;;;;;12.70;2.63;;;;;;;;;;5029347;28;20055;-60
2022/04/08 13:10:19;;;;;;;11.57;3.42;;;;;;;;;;5047771;28;20053;-60
2022/04/08 13:12:45;;;;;;;12.13;2.80;;;;;;;;;;5047671;28;20049;-60
2022/04/08 13:15:11;;;;;;;14.15;2.67;;;;;;;;;;5044750;28;20052;-60
2022/04/08 13:17:38;;;;;;;17.25;3.20;;;;;;;;;;5045971;28;20172;-60
2022/04/08 13:20:06;;;;;;;8.05;2.20;;;;;;;;;;5041804;28;20436;-60
2022/04/08 13:22:32;;;;;;;11.15;2.17;;;;;;;;;;5045301;28;20053;-61
2022/04/08 13:24:58;;;;;;;8.70;1.80;;;;;;;;;;5047145;28;20045;-61
2022/04/08 13:27:25;;;;;;;11.38;2.60;;;;;;;;;;5029801;28;20116;-60
2022/04/08 13:29:54;;;;;;;8.80;2.28;;;;;;;;;;5047195;28;20128;-61
2022/04/08 13:32:22;;;;;;;10.77;2.47;;;;;;;;;;5045417;28;20049;-61
2022/04/08 13:34:48;;;;;;;7.90;2.10;;;;;;;;;;5044377;28;20120;-61
2022/04/08 13:37:18;;;;;;;12.30;2.50;;;;;;;;;;5040932;28;20472;-60
2022/04/08 13:39:45;;;;;;;12.25;2.53;;;;;;;;;;5044262;28;20052;-61
2022/04/08 13:42:11;;;;;;;8.55;2.15;;;;;;;;;;5041343;28;20118;-61
2022/04/08 13:44:37;;;;;;;9.55;2.10;;;;;;;;;;5045184;28;20140;-61
2022/04/08 13:47:04;;;;;;;8.75;2.17;;;;;;;;;;5042182;28;20110;-61
2022/04/08 13:49:30;;;;;;;11.32;2.05;;;;;;;;;;5045821;28;20124;-60
2022/04/08 13:51:56;;;;;;;;;;;;;;;;;;5038130;28;20401;-62
2022/04/08 13:54:23;;;;;;;11.30;2.42;;;;;;;;;;5038403;28;19921;-61
2022/04/08 13:56:51;;;;;;;11.95;2.30;;;;;;;;;;5044155;28;20045;-60
2022/04/08 13:59:17;;;;;;;20.50;3.40;;;;;;;;;;5037622;28;20408;-60
2022/04/08 14:01:43;;;;;;;12.93;2.60;;;;;;;;;;5041142;28;20117;-60
2022/04/08 14:04:10;;;;;;;11.95;2.20;;;;;;;;;;5039729;28;20041;-61
2022/04/08 14:06:37;;;;;;;9.40;2.30;;;;;;;;;;5043229;28;20049;-61
2022/04/08 14:09:04;;;;;;;;;;;;;;;;;;5047050;28;20045;-62
2022/04/08 14:11:30;;;;;;;;;;;;;;;;;;5046730;28;19940;-62
2022/04/08 14:13:56;;;;;;;13.77;3.03;;;;;;;;;;5061171;28;19921;-63
2022/04/08 14:16:22;;;;;;;13.30;2.58;;;;;;;;;;5044978;28;20042;-62
2022/04/08 14:18:49;;;;;;;11.40;2.65;;;;;;;;;;5047195;28;20214;-62
2022/04/08 14:21:15;;;;;;;;;;;;;;;;;;5046452;28;20248;-61
2022/04/08 14:23:44;;;;;;;12.15;2.35;;;;;;;;;;5044441;28;20373;-61
2022/04/08 14:26:10;;;;;;;9.75;2.65;;;;;;;;;;5048512;28;20045;-62
2022/04/08 14:28:36;;;;;;;12.70;2.50;;;;;;;;;;5049633;28;20081;-61
2022/04/08 14:31:04;;;;;;;11.07;2.75;;;;;;;;;;5041487;28;20118;-61
2022/04/08 14:33:30;;;;;;;14.35;2.45;;;;;;;;;;5028989;28;20115;-62
2022/04/08 14:35:58;;;;;;;;;;;;;;;;;;5048820;28;20077;-61
2022/04/08 14:38:24;;;;;;;11.70;2.72;;;;;;;;;;5043846;28;19967;-62
2022/04/08 14:40:51;;;;;;;9.35;2.50;;;;;;;;;;5050773;28;20041;-61